createdAt,value
2019-01-11T00:01:25.729Z,86.56
2019-01-11T00:03:32.204Z,86.73
2019-01-11T00:05:38.609Z,87.01
2019-01-11T00:07:45.325Z,87.14
2019-01-11T00:09:51.869Z,87.17
2019-01-11T00:12:00.432Z,87.30
2019-01-11T00:14:07.090Z,87.44
2019-01-11T00:16:13.399Z,87.63
2019-01-11T00:18:19.721Z,87.39
2019-01-11T00:20:26.087Z,86.97
2019-01-11T00:22:32.545Z,87.02
2019-01-11T00:24:38.758Z,86.85
2019-01-11T00:26:45.295Z,86.55
2019-01-11T00:28:51.650Z,86.75
2019-01-11T00:30:58.384Z,87.13
2019-01-11T00:33:05.033Z,87.48
2019-01-11T00:35:11.967Z,87.23
2019-01-11T00:37:18.418Z,87.12
2019-01-11T00:39:24.972Z,87.18
2019-01-11T00:41:31.390Z,86.98
2019-01-11T00:43:38.189Z,87.37
2019-01-11T00:45:44.854Z,87.52
2019-01-11T00:47:51.763Z,87.71
2019-01-11T00:49:58.790Z,87.39
2019-01-11T00:52:05.471Z,87.17
2019-01-11T00:54:11.988Z,87.50
2019-01-11T00:56:18.844Z,87.75
2019-01-11T00:58:25.431Z,88.00
2019-01-11T01:00:32.121Z,87.94
2019-01-11T01:02:39.188Z,87.88
2019-01-11T01:04:45.986Z,87.73
2019-01-11T01:06:53.453Z,87.75
2019-01-11T01:08:59.950Z,87.75
2019-01-11T01:11:06.757Z,88.22
2019-01-11T01:13:13.649Z,88.62
2019-01-11T01:15:20.993Z,88.59
2019-01-11T01:17:27.836Z,88.56
2019-01-11T01:19:34.507Z,88.65
2019-01-11T01:21:40.829Z,88.53
2019-01-11T01:23:47.283Z,88.46
2019-01-11T01:25:53.602Z,88.56
2019-01-11T01:28:00.125Z,88.66
2019-01-11T01:30:10.171Z,88.75
2019-01-11T01:32:16.437Z,88.71
2019-01-11T01:34:24.822Z,88.41
2019-01-11T01:36:31.580Z,88.07
2019-01-11T01:38:37.846Z,88.02
2019-01-11T01:40:44.843Z,87.84
2019-01-11T01:42:51.370Z,87.11
2019-01-11T01:44:59.837Z,86.91
2019-01-11T01:47:06.776Z,86.60
2019-01-11T01:49:14.542Z,86.32
2019-01-11T01:51:21.143Z,86.58
2019-01-11T01:53:27.748Z,86.76
2019-01-11T01:55:34.165Z,87.07
2019-01-11T01:57:40.628Z,87.37
2019-01-11T01:59:47.224Z,87.46
2019-01-11T02:01:54.301Z,87.22
2019-01-11T02:04:00.850Z,87.27
2019-01-11T02:06:07.979Z,87.01
2019-01-11T02:08:14.443Z,86.84
2019-01-11T02:10:21.117Z,86.90
2019-01-11T02:12:28.145Z,86.67
2019-01-11T02:14:34.674Z,86.70
2019-01-11T02:16:40.998Z,86.78
2019-01-11T02:18:47.896Z,86.84
2019-01-11T02:20:54.481Z,86.98
2019-01-11T02:23:01.125Z,87.06
2019-01-11T02:25:08.280Z,87.22
2019-01-11T02:27:15.664Z,86.95
2019-01-11T02:29:21.811Z,86.74
2019-01-11T02:31:28.563Z,86.55
2019-01-11T02:33:35.379Z,86.66
2019-01-11T02:35:41.881Z,86.77
2019-01-11T02:37:48.502Z,86.97
2019-01-11T02:39:55.115Z,87.02
2019-01-11T02:42:01.756Z,86.82
2019-01-11T02:44:08.587Z,86.84
2019-01-11T02:46:14.867Z,86.85
2019-01-11T02:48:21.586Z,87.06
2019-01-11T02:50:28.236Z,86.54
2019-01-11T02:52:34.639Z,86.55
2019-01-11T02:54:40.924Z,86.84
2019-01-11T02:56:47.642Z,87.02
2019-01-11T02:58:54.098Z,86.75
2019-01-11T03:01:00.737Z,86.85
2019-01-11T03:03:07.806Z,87.05
2019-01-11T03:05:15.222Z,86.53
2019-01-11T03:07:21.852Z,86.43
2019-01-11T03:09:28.449Z,86.87
2019-01-11T03:11:35.917Z,87.36
2019-01-11T03:13:42.740Z,87.62
2019-01-11T03:15:49.285Z,87.90
2019-01-11T03:17:57.340Z,87.89
2019-01-11T03:20:03.824Z,87.73
2019-01-11T03:22:10.176Z,87.71
2019-01-11T03:24:16.546Z,87.92
2019-01-11T03:26:23.450Z,87.96
2019-01-11T03:28:30.137Z,88.07
2019-01-11T03:30:36.845Z,88.23
2019-01-11T03:32:43.249Z,88.41
2019-01-11T03:35:13.137Z,88.69
2019-01-11T03:37:19.796Z,88.69
2019-01-11T03:39:26.311Z,88.72
2019-01-11T03:41:33.306Z,88.80
2019-01-11T03:43:39.729Z,88.60
2019-01-11T03:45:46.028Z,88.57
2019-01-11T03:47:52.543Z,88.55
2019-01-11T03:49:59.357Z,88.65
2019-01-11T03:52:06.022Z,88.68
2019-01-11T03:54:12.421Z,88.82
2019-01-11T03:56:18.819Z,88.74
2019-01-11T03:58:25.499Z,88.69
2019-01-11T04:00:31.959Z,88.78
2019-01-11T04:02:38.675Z,88.70
2019-01-11T04:04:45.055Z,87.89
2019-01-11T04:06:51.630Z,88.00
2019-01-11T04:08:58.592Z,88.32
2019-01-11T04:11:05.170Z,88.21
2019-01-11T04:13:11.691Z,88.37
2019-01-11T04:15:19.306Z,88.36
2019-01-11T04:17:26.671Z,88.20
2019-01-11T04:19:33.049Z,88.08
2019-01-11T04:21:41.253Z,88.24
2019-01-11T04:23:47.644Z,88.04
2019-01-11T04:25:54.356Z,88.18
2019-01-11T04:28:00.827Z,88.39
2019-01-11T04:30:14.231Z,88.57
2019-01-11T04:32:20.964Z,88.49
2019-01-11T04:34:27.617Z,88.38
2019-01-11T04:36:34.660Z,88.45
2019-01-11T04:38:40.908Z,88.64
2019-01-11T04:40:47.429Z,88.54
2019-01-11T04:42:53.961Z,88.73
2019-01-11T04:45:00.463Z,88.70
2019-01-11T04:47:07.052Z,88.70
2019-01-11T04:49:13.508Z,88.74
2019-01-11T04:51:20.374Z,88.88
2019-01-11T04:53:26.759Z,88.87
2019-01-11T04:55:33.175Z,88.77
2019-01-11T04:57:39.611Z,88.42
2019-01-11T04:59:45.672Z,88.12
2019-01-11T05:01:52.261Z,88.13
2019-01-11T05:03:58.921Z,88.41
2019-01-11T05:06:05.411Z,88.62
2019-01-11T05:08:11.965Z,88.76
2019-01-11T05:10:22.161Z,88.83
2019-01-11T05:12:29.023Z,88.80
2019-01-11T05:14:35.609Z,88.87
2019-01-11T05:16:42.452Z,88.89
2019-01-11T05:18:49.046Z,89.18
2019-01-11T05:20:55.430Z,89.08
2019-01-11T05:23:02.597Z,89.16
2019-01-11T05:25:09.188Z,89.14
2019-01-11T05:27:15.713Z,89.04
2019-01-11T05:29:22.040Z,88.79
2019-01-11T05:31:28.868Z,88.55
2019-01-11T05:33:35.370Z,88.64
2019-01-11T05:35:42.386Z,88.90
2019-01-11T05:37:49.172Z,88.88
2019-01-11T05:39:56.043Z,88.87
2019-01-11T05:42:02.937Z,88.91
2019-01-11T05:44:09.598Z,88.92
2019-01-11T05:46:16.418Z,88.93
2019-01-11T05:48:22.927Z,88.95
2019-01-11T05:50:29.826Z,88.88
2019-01-11T05:52:36.361Z,88.92
2019-01-11T05:54:42.977Z,89.25
2019-01-11T05:56:49.732Z,88.52
2019-01-11T05:59:05.201Z,87.11
2019-01-11T06:01:13.115Z,86.65
2019-01-11T06:03:19.808Z,86.81
2019-01-11T06:05:26.138Z,86.30
2019-01-11T06:07:37.934Z,86.27
2019-01-11T06:09:45.007Z,86.11
2019-01-11T06:11:51.845Z,85.62
2019-01-11T06:13:58.636Z,85.23
2019-01-11T06:16:06.154Z,84.91
2019-01-11T06:18:12.725Z,85.53
2019-01-11T06:20:19.613Z,85.65
2019-01-11T06:22:26.127Z,85.84
2019-01-11T06:24:32.827Z,85.74
2019-01-11T06:26:42.092Z,85.50
2019-01-11T06:28:48.698Z,85.61
2019-01-11T06:30:55.777Z,83.85
2019-01-11T06:33:02.584Z,84.28
2019-01-11T06:35:10.438Z,84.41
2019-01-11T06:37:17.179Z,84.53
2019-01-11T06:39:23.868Z,84.30
2019-01-11T06:41:39.910Z,84.46
2019-01-11T06:43:48.245Z,83.90
2019-01-11T06:45:55.316Z,84.15
2019-01-11T06:48:03.117Z,83.48
2019-01-11T06:50:12.566Z,83.52
2019-01-11T06:52:19.463Z,84.20
2019-01-11T06:54:25.938Z,84.14
2019-01-11T06:56:33.098Z,84.30
2019-01-11T06:58:39.618Z,84.44
2019-01-11T07:00:46.306Z,83.87
2019-01-11T07:02:53.314Z,83.49
2019-01-11T07:05:01.516Z,84.21
2019-01-11T07:07:08.003Z,83.47
2019-01-11T07:09:14.846Z,83.39
2019-01-11T07:11:21.541Z,83.47
2019-01-11T07:13:28.677Z,83.70
2019-01-11T07:15:35.448Z,83.32
2019-01-11T07:17:41.935Z,83.31
2019-01-11T07:19:48.485Z,83.38
2019-01-11T07:21:55.961Z,83.89
2019-01-11T07:24:02.748Z,84.09
2019-01-11T07:26:12.337Z,83.43
2019-01-11T07:28:18.988Z,83.35
2019-01-11T07:30:29.281Z,82.71
2019-01-11T07:32:36.275Z,82.69
2019-01-11T07:34:42.987Z,83.48
2019-01-11T07:36:52.458Z,83.03
2019-01-11T07:38:59.504Z,83.79
2019-01-11T07:41:06.170Z,83.84
2019-01-11T07:43:12.764Z,83.55
2019-01-11T07:45:19.300Z,83.21
2019-01-11T07:47:25.756Z,83.38
2019-01-11T07:49:32.377Z,82.95
2019-01-11T07:51:39.121Z,83.61
2019-01-11T07:53:45.787Z,83.64
2019-01-11T07:55:52.443Z,83.69
2019-01-11T07:57:59.158Z,83.39
2019-01-11T08:00:08.391Z,83.46
2019-01-11T08:02:15.375Z,83.46
2019-01-11T08:04:21.986Z,83.03
2019-01-11T08:06:28.703Z,83.63
2019-01-11T08:08:35.735Z,84.11
2019-01-11T08:10:42.353Z,83.43
2019-01-11T08:12:49.565Z,83.55
2019-01-11T08:14:56.264Z,85.34
2019-01-11T08:17:03.128Z,85.71
2019-01-11T08:19:10.051Z,86.21
2019-01-11T08:21:16.913Z,85.71
2019-01-11T08:23:23.617Z,85.97
2019-01-11T08:25:30.076Z,85.13
2019-01-11T08:27:37.543Z,85.40
2019-01-11T08:29:44.399Z,85.08
2019-01-11T08:31:51.510Z,84.56
2019-01-11T08:33:58.527Z,83.97
2019-01-11T08:36:05.571Z,84.25
2019-01-11T08:38:12.166Z,83.93
2019-01-11T08:40:18.851Z,83.68
2019-01-11T08:42:25.460Z,84.36
2019-01-11T08:44:32.103Z,85.42
2019-01-11T08:46:38.869Z,84.82
2019-01-11T08:48:45.926Z,85.09
2019-01-11T08:50:53.067Z,85.19
2019-01-11T08:52:59.736Z,85.92
2019-01-11T08:55:06.836Z,85.39
2019-01-11T08:57:13.293Z,84.97
2019-01-11T08:59:20.271Z,83.31
2019-01-11T09:01:27.308Z,82.45
2019-01-11T09:03:34.021Z,82.63
2019-01-11T09:05:40.645Z,82.03
2019-01-11T09:07:47.484Z,82.80
2019-01-11T09:09:54.130Z,82.50
2019-01-11T09:12:00.756Z,81.63
2019-01-11T09:14:09.323Z,81.72
2019-01-11T09:16:20.692Z,82.17
2019-01-11T09:18:37.395Z,82.16
2019-01-11T09:20:44.350Z,82.28
2019-01-11T09:22:50.970Z,82.47
2019-01-11T09:24:57.906Z,82.04
2019-01-11T09:27:04.597Z,82.08
2019-01-11T09:29:11.062Z,80.91
2019-01-11T09:31:17.703Z,82.04
2019-01-11T09:33:24.832Z,83.71
2019-01-11T09:35:32.182Z,84.13
2019-01-11T09:37:39.073Z,84.82
2019-01-11T09:39:45.699Z,84.31
2019-01-11T09:41:52.709Z,83.21
2019-01-11T09:43:59.531Z,81.25
2019-01-11T09:46:06.557Z,81.30
2019-01-11T09:48:13.325Z,81.94
2019-01-11T09:50:19.905Z,81.95
2019-01-11T09:52:26.377Z,81.87
2019-01-11T09:54:32.854Z,81.45
2019-01-11T09:56:39.365Z,80.94
2019-01-11T09:58:46.258Z,80.72
2019-01-11T10:00:58.983Z,80.21
2019-01-11T10:03:06.968Z,80.73
2019-01-11T10:05:13.666Z,80.67
2019-01-11T10:07:27.824Z,81.16
2019-01-11T10:09:34.439Z,81.44
2019-01-11T10:11:41.130Z,81.78
2019-01-11T10:13:47.860Z,82.08
2019-01-11T10:15:54.285Z,82.63
2019-01-11T10:18:00.636Z,83.34
2019-01-11T10:20:08.961Z,83.89
2019-01-11T10:22:15.487Z,83.48
2019-01-11T10:24:22.141Z,83.99
2019-01-11T10:26:28.957Z,83.77
2019-01-11T10:28:35.564Z,84.37
2019-01-11T10:30:42.570Z,84.62
2019-01-11T10:32:49.805Z,84.22
2019-01-11T10:34:56.656Z,83.92
2019-01-11T10:37:03.253Z,83.65
2019-01-11T10:39:10.283Z,83.99
2019-01-11T10:41:16.998Z,83.84
2019-01-11T10:43:23.889Z,83.61
2019-01-11T10:45:30.551Z,84.57
2019-01-11T10:47:37.182Z,84.20
2019-01-11T10:49:43.693Z,82.99
2019-01-11T10:51:50.140Z,82.77
2019-01-11T10:53:56.412Z,82.46
2019-01-11T10:56:03.292Z,82.16
2019-01-11T10:58:12.083Z,81.62
2019-01-11T11:00:28.061Z,83.08
2019-01-11T11:02:35.081Z,84.04
2019-01-11T11:04:41.626Z,83.17
2019-01-11T11:06:49.048Z,81.32
2019-01-11T11:08:55.814Z,81.64
2019-01-11T11:11:02.224Z,81.36
2019-01-11T11:13:08.931Z,81.15
2019-01-11T11:15:16.857Z,81.63
2019-01-11T11:17:23.490Z,82.90
2019-01-11T11:19:30.131Z,83.39
2019-01-11T11:21:37.287Z,82.92
2019-01-11T11:23:44.319Z,82.97
2019-01-11T11:25:50.671Z,82.23
2019-01-11T11:27:57.454Z,81.79
2019-01-11T11:30:04.794Z,82.50
2019-01-11T11:32:13.422Z,82.42
2019-01-11T11:34:29.559Z,81.12
2019-01-11T11:36:36.502Z,79.96
2019-01-11T11:38:43.134Z,79.99
2019-01-11T11:40:50.004Z,79.74
2019-01-11T11:42:56.512Z,80.37
2019-01-11T11:45:04.065Z,80.55
2019-01-11T11:47:10.843Z,80.59
2019-01-11T11:49:17.798Z,80.65
2019-01-11T11:51:24.522Z,80.00
2019-01-11T11:53:31.343Z,79.15
2019-01-11T11:55:37.926Z,79.20
2019-01-11T11:57:45.319Z,78.90
2019-01-11T11:59:53.280Z,78.60
2019-01-11T12:02:00.424Z,79.36
2019-01-11T12:04:07.445Z,79.45
2019-01-11T12:06:14.245Z,79.40
2019-01-11T12:08:21.034Z,78.50
2019-01-11T12:10:27.661Z,78.07
2019-01-11T12:12:35.071Z,78.24
2019-01-11T12:14:41.717Z,78.49
2019-01-11T12:16:47.971Z,77.80
2019-01-11T12:18:54.588Z,78.06
2019-01-11T12:21:01.212Z,77.77
2019-01-11T12:23:08.618Z,77.52
2019-01-11T12:25:15.232Z,77.51
2019-01-11T12:27:22.074Z,78.89
2019-01-11T12:29:28.927Z,79.85
2019-01-11T12:31:36.204Z,80.53
2019-01-11T12:33:42.976Z,81.13
2019-01-11T12:35:49.607Z,80.80
2019-01-11T12:37:56.246Z,80.84
2019-01-11T12:40:03.196Z,81.92
2019-01-11T12:42:13.330Z,83.21
2019-01-11T12:44:19.683Z,82.30
2019-01-11T12:46:26.551Z,80.58
2019-01-11T12:48:33.590Z,81.91
2019-01-11T12:50:40.105Z,80.13
2019-01-11T12:52:46.572Z,80.42
2019-01-11T12:54:53.481Z,79.48
2019-01-11T12:57:00.314Z,79.99
2019-01-11T12:59:06.938Z,79.70
2019-01-11T13:01:13.882Z,78.70
2019-01-11T13:03:20.479Z,78.40
2019-01-11T13:05:27.330Z,78.22
2019-01-11T13:07:34.214Z,78.53
2019-01-11T13:09:41.188Z,78.48
2019-01-11T13:11:48.088Z,78.47
2019-01-11T13:13:55.310Z,78.94
2019-01-11T13:16:04.221Z,78.98
2019-01-11T13:18:11.261Z,78.98
2019-01-11T13:20:20.175Z,80.04
2019-01-11T13:22:26.900Z,80.76
2019-01-11T13:24:33.194Z,81.32
2019-01-11T13:26:39.897Z,80.66
2019-01-11T13:28:46.763Z,79.84
2019-01-11T13:30:53.600Z,79.84
2019-01-11T13:33:00.517Z,79.83
2019-01-11T13:35:07.753Z,79.65
2019-01-11T13:37:14.316Z,79.43
2019-01-11T13:39:22.153Z,80.02
2019-01-11T13:41:29.295Z,80.39
2019-01-11T13:43:37.115Z,81.36
2019-01-11T13:45:43.547Z,81.52
2019-01-11T13:47:50.205Z,81.62
2019-01-11T13:49:57.099Z,81.61
2019-01-11T13:52:07.328Z,82.41
2019-01-11T13:54:14.565Z,82.18
2019-01-11T13:56:21.132Z,81.95
2019-01-11T13:58:28.066Z,83.19
2019-01-11T14:00:35.122Z,84.18
2019-01-11T14:02:42.195Z,84.23
2019-01-11T14:04:48.855Z,85.23
2019-01-11T14:06:55.442Z,84.59
2019-01-11T14:09:02.370Z,85.37
2019-01-11T14:11:09.516Z,85.66
2019-01-11T14:13:16.326Z,85.47
2019-01-11T14:15:24.109Z,85.09
2019-01-11T14:17:30.474Z,84.30
2019-01-11T14:19:37.388Z,84.52
2019-01-11T14:21:44.286Z,84.15
2019-01-11T14:23:51.126Z,84.26
2019-01-11T14:25:57.649Z,84.56
2019-01-11T14:28:06.822Z,84.64
2019-01-11T14:30:13.524Z,84.70
2019-01-11T14:32:20.142Z,84.24
2019-01-11T14:34:26.552Z,84.71
2019-01-11T14:36:33.235Z,84.98
2019-01-11T14:38:40.404Z,84.28
2019-01-11T14:40:46.710Z,84.07
2019-01-11T14:42:53.211Z,84.48
2019-01-11T14:45:00.090Z,86.26
2019-01-11T14:47:06.642Z,85.78
2019-01-11T14:49:13.290Z,85.12
2019-01-11T14:51:21.620Z,84.88
2019-01-11T14:53:28.498Z,85.20
2019-01-11T14:55:35.109Z,85.36
2019-01-11T14:57:41.886Z,86.02
2019-01-11T14:59:48.344Z,86.03
2019-01-11T15:01:55.462Z,85.86
2019-01-11T15:04:02.421Z,85.62
2019-01-11T15:06:10.689Z,85.55
2019-01-11T15:08:17.228Z,85.53
2019-01-11T15:10:24.506Z,86.79
2019-01-11T15:12:33.031Z,86.31
2019-01-11T15:14:40.604Z,87.50
2019-01-11T15:16:47.455Z,87.89
2019-01-11T15:18:54.253Z,88.00
2019-01-11T15:21:01.223Z,87.40
2019-01-11T15:23:13.373Z,88.27
2019-01-11T15:25:16.805Z,88.91
2019-01-11T15:27:23.389Z,88.91
2019-01-11T15:29:30.658Z,88.60
2019-01-11T15:31:38.393Z,88.91
2019-01-11T15:33:45.972Z,88.40
2019-01-11T15:35:53.023Z,89.02
2019-01-11T15:38:00.331Z,89.75
2019-01-11T15:40:11.779Z,89.60
2019-01-11T15:42:18.162Z,89.50
2019-01-11T15:44:25.035Z,89.33
2019-01-11T15:46:31.816Z,88.79
2019-01-11T15:48:50.239Z,89.29
2019-01-11T15:50:58.294Z,89.80
2019-01-11T15:53:04.855Z,89.54
2019-01-11T15:55:12.253Z,89.12
2019-01-11T15:57:25.137Z,89.11
2019-01-11T15:59:32.044Z,89.71
2019-01-11T16:01:39.092Z,89.31
2019-01-11T16:03:45.705Z,89.54
2019-01-11T16:06:25.212Z,90.02
2019-01-11T16:08:31.984Z,89.97
2019-01-11T16:11:02.289Z,90.42
2019-01-11T16:13:44.939Z,90.31
2019-01-11T16:16:22.071Z,89.63
2019-01-11T16:18:31.014Z,89.88
2019-01-11T16:20:38.909Z,89.62
2019-01-11T16:22:45.664Z,89.26
2019-01-11T16:24:52.366Z,88.90
2019-01-11T16:26:59.034Z,89.93
2019-01-11T16:29:05.781Z,90.11
2019-01-11T16:31:12.631Z,90.24
2019-01-11T16:33:19.494Z,90.52
2019-01-11T16:35:26.002Z,90.31
2019-01-11T16:37:33.142Z,89.95
2019-01-11T16:39:41.867Z,89.53
2019-01-11T16:41:49.249Z,88.93
2019-01-11T16:43:56.201Z,89.08
2019-01-11T16:46:03.141Z,89.67
2019-01-11T16:48:10.134Z,90.23
2019-01-11T16:50:17.371Z,90.03
2019-01-11T16:52:24.076Z,89.85
2019-01-11T16:54:30.958Z,89.75
2019-01-11T16:56:38.123Z,90.00
2019-01-11T16:58:45.471Z,90.07
2019-01-11T17:00:52.565Z,90.16
2019-01-11T17:02:59.300Z,89.87
2019-01-11T17:05:06.590Z,89.45
2019-01-11T17:07:14.096Z,89.44
2019-01-11T17:09:20.441Z,90.32
2019-01-11T17:11:27.513Z,90.57
2019-01-11T17:13:40.740Z,90.46
2019-01-11T17:15:47.615Z,89.95
2019-01-11T17:17:55.772Z,89.42
2019-01-11T17:20:02.635Z,89.48
2019-01-11T17:22:10.965Z,89.79
2019-01-11T17:24:18.093Z,90.21
2019-01-11T17:26:25.274Z,90.24
2019-01-11T17:28:32.305Z,90.56
2019-01-11T17:30:41.056Z,90.28
2019-01-11T17:32:47.901Z,90.06
2019-01-11T17:34:54.600Z,89.87
2019-01-11T17:37:01.793Z,88.81
2019-01-11T17:39:10.977Z,89.14
2019-01-11T17:41:18.120Z,89.17
2019-01-11T17:43:25.135Z,90.12
2019-01-11T17:45:32.239Z,90.03
2019-01-11T17:47:39.401Z,90.10
2019-01-11T17:49:46.228Z,90.06
2019-01-11T17:51:53.317Z,89.76
2019-01-11T17:53:59.940Z,89.84
2019-01-11T17:56:07.518Z,90.37
2019-01-11T17:58:14.172Z,90.51
2019-01-11T18:00:21.362Z,89.96
2019-01-11T18:02:28.023Z,90.00
2019-01-11T18:04:34.839Z,90.92
2019-01-11T18:06:41.631Z,91.06
2019-01-11T18:08:48.491Z,90.99
2019-01-11T18:10:55.028Z,90.61
2019-01-11T18:13:01.660Z,90.49
2019-01-11T18:15:11.667Z,90.29
2019-01-11T18:17:19.086Z,90.17
2019-01-11T18:19:26.134Z,89.63
2019-01-11T18:21:33.285Z,89.55
2019-01-11T18:23:40.351Z,89.76
2019-01-11T18:25:48.570Z,89.87
2019-01-11T18:27:56.945Z,90.63
2019-01-11T18:30:06.754Z,90.16
2019-01-11T18:32:14.099Z,90.40
2019-01-11T18:34:21.552Z,89.79
2019-01-11T18:36:28.171Z,89.77
2019-01-11T18:38:35.227Z,89.55
2019-01-11T18:40:41.931Z,90.41
2019-01-11T18:42:48.599Z,90.41
2019-01-11T18:44:55.598Z,90.53
2019-01-11T18:47:02.973Z,89.89
2019-01-11T18:49:09.700Z,90.16
2019-01-11T18:51:17.245Z,89.90
2019-01-11T18:53:23.887Z,89.28
2019-01-11T18:55:30.410Z,89.63
2019-01-11T18:57:37.438Z,90.27
2019-01-11T18:59:43.956Z,90.27
2019-01-11T19:01:51.494Z,89.81
2019-01-11T19:03:58.613Z,89.97
2019-01-11T19:06:05.726Z,89.71
2019-01-11T19:08:12.161Z,89.78
2019-01-11T19:10:19.584Z,89.55
2019-01-11T19:12:26.689Z,89.71
2019-01-11T19:14:34.495Z,89.76
2019-01-11T19:16:41.318Z,89.65
2019-01-11T19:18:48.697Z,90.40
2019-01-11T19:20:55.653Z,89.96
2019-01-11T19:23:03.136Z,89.96
2019-01-11T19:25:10.889Z,89.65
2019-01-11T19:27:17.658Z,89.86
2019-01-11T19:29:24.496Z,90.09
2019-01-11T19:31:31.152Z,90.15
2019-01-11T19:33:37.840Z,90.13
2019-01-11T19:35:45.481Z,90.18
2019-01-11T19:37:52.803Z,90.13
2019-01-11T19:40:01.956Z,90.29
2019-01-11T19:42:09.656Z,90.36
2019-01-11T19:44:16.484Z,90.92
2019-01-11T19:46:23.187Z,90.57
2019-01-11T19:48:30.257Z,90.87
2019-01-11T19:50:37.687Z,90.71
2019-01-11T19:52:44.512Z,90.71
2019-01-11T19:54:51.289Z,90.85
2019-01-11T19:57:00.521Z,91.02
2019-01-11T19:59:07.703Z,90.90
2019-01-11T20:01:14.848Z,90.96
2019-01-11T20:03:21.598Z,91.02
2019-01-11T20:05:28.854Z,91.44
2019-01-11T20:07:35.519Z,91.70
2019-01-11T20:09:49.465Z,91.53
2019-01-11T20:11:56.097Z,91.45
2019-01-11T20:14:03.027Z,91.18
2019-01-11T20:16:09.472Z,91.04
2019-01-11T20:18:16.436Z,91.06
2019-01-11T20:20:24.964Z,91.04
2019-01-11T20:22:32.003Z,90.79
2019-01-11T20:24:40.267Z,90.82
2019-01-11T20:26:47.194Z,90.17
2019-01-11T20:28:53.711Z,90.51
2019-01-11T20:31:00.250Z,90.70
2019-01-11T20:33:06.846Z,90.71
2019-01-11T20:35:13.833Z,90.60
2019-01-11T20:37:28.063Z,90.98
2019-01-11T20:39:36.254Z,91.08
2019-01-11T20:41:43.052Z,91.22
2019-01-11T20:43:49.971Z,91.11
2019-01-11T20:46:03.188Z,91.60
2019-01-11T20:48:06.674Z,92.03
2019-01-11T20:50:18.729Z,92.13
2019-01-11T20:52:25.650Z,92.17
2019-01-11T20:54:32.456Z,92.33
2019-01-11T20:56:39.478Z,92.28
2019-01-11T20:58:45.939Z,92.23
2019-01-11T21:00:52.920Z,92.16
2019-01-11T21:03:00.036Z,92.02
2019-01-11T21:05:07.185Z,91.92
2019-01-11T21:07:13.885Z,91.99
2019-01-11T21:09:20.282Z,91.93
2019-01-11T21:11:27.012Z,92.34
2019-01-11T21:13:34.771Z,92.65
2019-01-11T21:15:41.285Z,92.65
2019-01-11T21:17:48.479Z,92.63
2019-01-11T21:19:55.391Z,92.57
2019-01-11T21:22:02.414Z,92.68
2019-01-11T21:24:09.435Z,92.54
2019-01-11T21:26:16.038Z,92.42
2019-01-11T21:28:22.435Z,92.35
2019-01-11T21:30:30.867Z,92.20
2019-01-11T21:32:37.431Z,91.75
2019-01-11T21:34:44.208Z,90.94
2019-01-11T21:36:51.080Z,91.08
2019-01-11T21:38:59.183Z,91.23
2019-01-11T21:41:05.909Z,90.31
2019-01-11T21:43:12.530Z,90.72
2019-01-11T21:45:20.262Z,91.46
2019-01-11T21:47:27.628Z,91.39
2019-01-11T21:49:35.379Z,91.56
2019-01-11T21:51:42.516Z,91.18
2019-01-11T21:53:55.576Z,90.71
2019-01-11T21:55:59.026Z,91.55
2019-01-11T21:58:06.302Z,91.62
2019-01-11T22:00:41.226Z,91.61
2019-01-11T22:02:49.688Z,91.61
2019-01-11T22:04:56.453Z,90.49
2019-01-11T22:07:03.640Z,91.20
2019-01-11T22:09:10.503Z,89.49
2019-01-11T22:11:19.579Z,88.06
2019-01-11T22:13:27.055Z,88.06
2019-01-11T22:15:34.663Z,88.27
2019-01-11T22:17:41.485Z,88.84
2019-01-11T22:19:48.345Z,88.73
2019-01-11T22:21:56.384Z,88.90
2019-01-11T22:24:03.548Z,89.27
2019-01-11T22:26:11.588Z,88.96
2019-01-11T22:28:18.793Z,88.83
2019-01-11T22:30:30.069Z,88.34
2019-01-11T22:32:34.045Z,88.99
2019-01-11T22:34:41.236Z,88.57
2019-01-11T22:36:47.888Z,87.66
2019-01-11T22:38:54.348Z,87.16
2019-01-11T22:41:00.863Z,87.81
2019-01-11T22:43:07.874Z,88.54
2019-01-11T22:45:18.453Z,88.76
2019-01-11T22:47:25.388Z,89.40
2019-01-11T22:49:32.022Z,87.84
2019-01-11T22:51:38.910Z,86.69
2019-01-11T22:53:45.323Z,86.71
2019-01-11T22:55:52.510Z,86.83
2019-01-11T22:58:00.126Z,87.20
2019-01-11T23:00:17.305Z,85.99
2019-01-11T23:02:41.961Z,86.95
2019-01-11T23:04:48.421Z,85.32
2019-01-11T23:06:59.020Z,85.40
2019-01-11T23:09:09.883Z,84.22
2019-01-11T23:11:50.599Z,85.62
2019-01-11T23:13:57.258Z,85.07
2019-01-11T23:16:18.104Z,84.44
2019-01-11T23:18:26.485Z,84.49
2019-01-11T23:20:33.587Z,84.04
2019-01-11T23:22:40.181Z,84.16
2019-01-11T23:24:47.118Z,83.94
2019-01-11T23:26:53.777Z,84.66
2019-01-11T23:29:00.373Z,85.60
2019-01-11T23:31:06.797Z,85.67
2019-01-11T23:33:13.431Z,85.47
2019-01-11T23:35:20.197Z,84.57
2019-01-11T23:37:27.377Z,85.40
2019-01-11T23:39:33.933Z,84.78
2019-01-11T23:41:41.145Z,84.01
2019-01-11T23:43:47.897Z,84.38
2019-01-11T23:45:55.146Z,83.82
2019-01-11T23:48:02.029Z,86.00
2019-01-11T23:50:11.165Z,85.11
2019-01-11T23:52:17.625Z,85.27
2019-01-11T23:54:24.680Z,85.08
2019-01-11T23:56:31.802Z,84.78
2019-01-11T23:58:38.339Z,83.21
